createdAt,value
2019-03-29T00:00:06.144Z,19.04
2019-03-29T00:01:05.936Z,19.00
2019-03-29T00:02:05.926Z,19.01
2019-03-29T00:03:05.927Z,19.01
2019-03-29T00:04:05.902Z,18.92
2019-03-29T00:05:05.890Z,18.92
2019-03-29T00:06:05.877Z,18.98
2019-03-29T00:07:05.872Z,19.00
2019-03-29T00:08:05.882Z,18.97
2019-03-29T00:09:05.853Z,19.08
2019-03-29T00:10:05.845Z,19.19
2019-03-29T00:11:05.828Z,19.22
2019-03-29T00:12:05.814Z,19.37
2019-03-29T00:13:05.807Z,19.56
2019-03-29T00:14:05.813Z,19.71
2019-03-29T00:15:05.786Z,19.75
2019-03-29T00:16:05.785Z,19.89
2019-03-29T00:17:05.763Z,20.17
2019-03-29T00:18:05.753Z,20.44
2019-03-29T00:19:05.761Z,20.73
2019-03-29T00:20:06.327Z,20.92
2019-03-29T00:21:05.735Z,21.10
2019-03-29T00:22:05.713Z,21.37
2019-03-29T00:23:05.695Z,21.50
2019-03-29T00:24:07.060Z,21.62
2019-03-29T00:25:06.986Z,21.68
2019-03-29T00:26:05.665Z,21.84
2019-03-29T00:27:05.655Z,22.06
2019-03-29T00:28:05.651Z,22.19
2019-03-29T00:29:05.653Z,22.36
2019-03-29T00:30:05.627Z,22.52
2019-03-29T00:31:05.640Z,22.68
2019-03-29T00:32:06.113Z,22.73
2019-03-29T00:33:05.590Z,22.81
2019-03-29T00:34:05.602Z,22.95
2019-03-29T00:35:05.573Z,22.99
2019-03-29T00:36:05.575Z,23.08
2019-03-29T00:37:05.553Z,23.04
2019-03-29T00:38:05.538Z,22.98
2019-03-29T00:39:05.561Z,23.01
2019-03-29T00:40:06.305Z,22.98
2019-03-29T00:41:05.512Z,23.04
2019-03-29T00:42:05.490Z,23.01
2019-03-29T00:43:05.498Z,23.02
2019-03-29T00:44:05.489Z,22.98
2019-03-29T00:45:05.465Z,22.93
2019-03-29T00:46:05.457Z,22.92
2019-03-29T00:47:05.436Z,22.81
2019-03-29T00:48:05.434Z,22.78
2019-03-29T00:49:05.435Z,22.78
2019-03-29T00:50:05.406Z,22.74
2019-03-29T00:51:05.405Z,22.74
2019-03-29T00:52:05.384Z,22.73
2019-03-29T00:53:06.087Z,22.62
2019-03-29T00:54:05.386Z,22.56
2019-03-29T00:55:05.357Z,22.49
2019-03-29T00:56:05.353Z,22.46
2019-03-29T00:57:05.333Z,22.46
2019-03-29T00:58:05.324Z,22.31
2019-03-29T00:59:05.333Z,22.36
2019-03-29T01:00:05.306Z,22.15
2019-03-29T01:01:05.292Z,22.22
2019-03-29T01:02:05.283Z,22.15
2019-03-29T01:03:05.269Z,22.08
2019-03-29T01:04:05.621Z,22.01
2019-03-29T01:05:05.250Z,21.99
2019-03-29T01:06:05.238Z,21.99
2019-03-29T01:07:06.051Z,21.83
2019-03-29T01:08:08.346Z,21.74
2019-03-29T01:09:05.254Z,21.65
2019-03-29T01:10:05.193Z,21.53
2019-03-29T01:11:05.196Z,21.58
2019-03-29T01:12:05.173Z,21.48
2019-03-29T01:13:05.163Z,21.29
2019-03-29T01:14:05.174Z,21.29
2019-03-29T01:15:05.176Z,21.14
2019-03-29T01:16:05.160Z,21.22
2019-03-29T01:17:05.127Z,21.11
2019-03-29T01:18:05.111Z,20.90
2019-03-29T01:19:05.109Z,21.01
2019-03-29T01:20:05.113Z,20.83
2019-03-29T01:21:05.075Z,20.80
2019-03-29T01:22:05.276Z,20.86
2019-03-29T01:23:05.056Z,20.86
2019-03-29T01:24:05.047Z,20.86
2019-03-29T01:25:05.055Z,20.77
2019-03-29T01:26:05.028Z,20.68
2019-03-29T01:27:05.020Z,20.77
2019-03-29T01:28:05.006Z,20.70
2019-03-29T01:29:04.998Z,20.67
2019-03-29T01:30:05.005Z,20.68
2019-03-29T01:31:04.969Z,20.64
2019-03-29T01:32:04.964Z,20.64
2019-03-29T01:33:04.950Z,20.56
2019-03-29T01:34:04.942Z,20.56
2019-03-29T01:35:05.019Z,20.58
2019-03-29T01:36:04.921Z,20.64
2019-03-29T01:37:04.905Z,20.59
2019-03-29T01:38:04.898Z,20.55
2019-03-29T01:39:04.889Z,20.59
2019-03-29T01:40:04.985Z,20.55
2019-03-29T01:41:04.867Z,20.52
2019-03-29T01:42:04.860Z,20.55
2019-03-29T01:43:04.843Z,20.49
2019-03-29T01:44:04.844Z,20.58
2019-03-29T01:45:04.847Z,20.46
2019-03-29T01:46:04.823Z,20.49
2019-03-29T01:47:04.799Z,20.53
2019-03-29T01:48:04.791Z,20.50
2019-03-29T01:49:04.787Z,20.44
2019-03-29T01:50:04.827Z,20.50
2019-03-29T01:51:04.769Z,20.44
2019-03-29T01:52:04.754Z,20.46
2019-03-29T01:53:04.741Z,20.46
2019-03-29T01:54:04.733Z,20.46
2019-03-29T01:55:04.739Z,20.36
2019-03-29T01:56:04.727Z,20.49
2019-03-29T01:57:04.705Z,20.42
2019-03-29T01:58:04.687Z,20.46
2019-03-29T01:59:04.671Z,20.46
2019-03-29T02:00:04.699Z,20.42
2019-03-29T02:01:04.652Z,20.36
2019-03-29T02:02:04.650Z,20.40
2019-03-29T02:03:04.628Z,20.34
2019-03-29T02:04:05.953Z,20.18
2019-03-29T02:05:04.610Z,20.27
2019-03-29T02:06:04.611Z,20.19
2019-03-29T02:07:04.588Z,20.27
2019-03-29T02:08:05.067Z,20.26
2019-03-29T02:09:05.131Z,20.21
2019-03-29T02:10:04.558Z,20.26
2019-03-29T02:11:04.579Z,20.24
2019-03-29T02:12:04.537Z,20.14
2019-03-29T02:13:04.529Z,20.14
2019-03-29T02:14:04.517Z,20.14
2019-03-29T02:15:04.506Z,20.15
2019-03-29T02:16:04.508Z,20.15
2019-03-29T02:17:04.483Z,20.14
2019-03-29T02:18:04.477Z,20.12
2019-03-29T02:19:05.272Z,20.19
2019-03-29T02:20:04.453Z,20.17
2019-03-29T02:21:04.463Z,20.15
2019-03-29T02:22:04.433Z,20.11
2019-03-29T02:23:04.432Z,20.04
2019-03-29T02:24:04.411Z,20.07
2019-03-29T02:25:04.400Z,20.08
2019-03-29T02:26:04.422Z,20.08
2019-03-29T02:27:04.378Z,20.00
2019-03-29T02:28:04.368Z,20.00
2019-03-29T02:29:04.383Z,20.00
2019-03-29T02:30:04.988Z,20.00
2019-03-29T02:31:04.336Z,20.02
2019-03-29T02:32:04.355Z,20.10
2019-03-29T02:33:04.323Z,20.18
2019-03-29T02:34:04.316Z,20.22
2019-03-29T02:35:04.296Z,20.32
2019-03-29T02:36:04.347Z,20.40
2019-03-29T02:37:04.305Z,20.50
2019-03-29T02:38:04.259Z,20.58
2019-03-29T02:39:04.260Z,20.75
2019-03-29T02:40:04.248Z,20.83
2019-03-29T02:41:04.231Z,20.85
2019-03-29T02:42:04.240Z,20.85
2019-03-29T02:43:04.232Z,20.96
2019-03-29T02:44:04.203Z,20.95
2019-03-29T02:45:04.196Z,21.10
2019-03-29T02:46:04.192Z,21.07
2019-03-29T02:47:04.187Z,21.14
2019-03-29T02:48:04.161Z,21.20
2019-03-29T02:49:04.150Z,21.22
2019-03-29T02:50:04.137Z,21.29
2019-03-29T02:51:04.843Z,21.23
2019-03-29T02:52:04.115Z,21.29
2019-03-29T02:53:04.144Z,21.22
2019-03-29T02:54:04.104Z,21.28
2019-03-29T02:55:04.087Z,21.30
2019-03-29T02:56:04.078Z,21.17
2019-03-29T02:57:04.066Z,21.25
2019-03-29T02:58:04.061Z,21.15
2019-03-29T02:59:04.041Z,21.10
2019-03-29T03:00:04.037Z,21.10
2019-03-29T03:01:04.016Z,21.10
2019-03-29T03:02:04.011Z,21.07
2019-03-29T03:03:04.021Z,21.05
2019-03-29T03:04:03.988Z,21.01
2019-03-29T03:05:03.977Z,20.98
2019-03-29T03:06:03.978Z,20.96
2019-03-29T03:07:03.953Z,20.88
2019-03-29T03:08:03.963Z,20.89
2019-03-29T03:09:13.008Z,20.78
2019-03-29T03:10:04.923Z,20.86
2019-03-29T03:11:03.915Z,20.90
2019-03-29T03:12:03.908Z,20.85
2019-03-29T03:13:03.924Z,20.75
2019-03-29T03:14:03.915Z,20.67
2019-03-29T03:15:03.872Z,20.71
2019-03-29T03:16:03.861Z,20.71
2019-03-29T03:17:03.851Z,20.58
2019-03-29T03:18:03.850Z,20.58
2019-03-29T03:19:03.942Z,20.59
2019-03-29T03:20:03.820Z,20.56
2019-03-29T03:21:03.808Z,20.56
2019-03-29T03:22:03.799Z,20.59
2019-03-29T03:23:03.785Z,20.48
2019-03-29T03:24:03.785Z,20.48
2019-03-29T03:25:03.785Z,20.53
2019-03-29T03:26:03.756Z,20.48
2019-03-29T03:27:03.738Z,20.46
2019-03-29T03:28:03.737Z,20.44
2019-03-29T03:29:03.744Z,20.44
2019-03-29T03:30:03.735Z,20.40
2019-03-29T03:31:03.703Z,20.46
2019-03-29T03:32:03.693Z,20.44
2019-03-29T03:33:03.677Z,20.42
2019-03-29T03:34:03.694Z,20.37
2019-03-29T03:35:03.667Z,20.49
2019-03-29T03:36:03.647Z,20.39
2019-03-29T03:37:03.643Z,20.33
2019-03-29T03:38:03.636Z,20.37
2019-03-29T03:39:03.636Z,20.36
2019-03-29T03:40:03.606Z,20.37
2019-03-29T03:41:03.598Z,20.21
2019-03-29T03:42:03.591Z,20.33
2019-03-29T03:43:03.577Z,20.24
2019-03-29T03:44:03.594Z,20.26
2019-03-29T03:45:03.561Z,20.24
2019-03-29T03:46:03.541Z,20.29
2019-03-29T03:47:03.536Z,20.24
2019-03-29T03:48:03.519Z,20.30
2019-03-29T03:49:03.507Z,20.32
2019-03-29T03:50:03.511Z,20.26
2019-03-29T03:51:03.492Z,20.27
2019-03-29T03:52:03.488Z,20.26
2019-03-29T03:53:03.464Z,20.27
2019-03-29T03:54:03.458Z,20.15
2019-03-29T03:55:03.468Z,20.11
2019-03-29T03:56:03.446Z,20.24
2019-03-29T03:57:03.426Z,20.12
2019-03-29T03:58:03.416Z,20.21
2019-03-29T03:59:03.405Z,20.18
2019-03-29T04:00:03.424Z,20.17
2019-03-29T04:01:03.391Z,20.14
2019-03-29T04:02:03.383Z,20.15
2019-03-29T04:03:03.363Z,20.11
2019-03-29T04:04:03.351Z,20.12
2019-03-29T04:05:03.339Z,20.17
2019-03-29T04:06:03.348Z,20.18
2019-03-29T04:07:03.317Z,20.14
2019-03-29T04:08:03.316Z,20.27
2019-03-29T04:09:03.299Z,20.12
2019-03-29T04:10:03.284Z,20.18
2019-03-29T04:11:03.286Z,20.12
2019-03-29T04:12:03.267Z,20.17
2019-03-29T04:13:03.252Z,20.21
2019-03-29T04:14:03.244Z,20.18
2019-03-29T04:15:03.232Z,20.19
2019-03-29T04:16:03.244Z,20.19
2019-03-29T04:17:03.225Z,20.15
2019-03-29T04:18:03.210Z,20.15
2019-03-29T04:19:03.214Z,20.12
2019-03-29T04:20:03.181Z,20.12
2019-03-29T04:21:03.185Z,20.04
2019-03-29T04:22:03.165Z,20.11
2019-03-29T04:23:03.150Z,20.10
2019-03-29T04:24:03.138Z,20.03
2019-03-29T04:25:03.130Z,20.11
2019-03-29T04:26:03.134Z,20.11
2019-03-29T04:27:03.103Z,20.03
2019-03-29T04:28:03.091Z,20.04
2019-03-29T04:29:05.096Z,20.03
2019-03-29T04:30:03.073Z,19.99
2019-03-29T04:31:03.100Z,19.87
2019-03-29T04:32:03.185Z,19.90
2019-03-29T04:33:03.042Z,19.89
2019-03-29T04:34:03.030Z,19.93
2019-03-29T04:35:03.020Z,19.94
2019-03-29T04:36:03.017Z,19.97
2019-03-29T04:37:03.039Z,19.94
2019-03-29T04:38:02.988Z,19.94
2019-03-29T04:39:02.979Z,20.07
2019-03-29T04:40:07.928Z,20.04
2019-03-29T04:41:03.959Z,20.14
2019-03-29T04:42:02.960Z,20.17
2019-03-29T04:43:02.941Z,20.22
2019-03-29T04:44:02.929Z,20.30
2019-03-29T04:45:02.912Z,20.36
2019-03-29T04:46:02.915Z,20.34
2019-03-29T04:47:02.905Z,20.44
2019-03-29T04:48:02.896Z,20.55
2019-03-29T04:49:02.880Z,20.60
2019-03-29T04:50:02.869Z,20.64
2019-03-29T04:51:02.848Z,20.68
2019-03-29T04:52:02.858Z,20.68
2019-03-29T04:53:02.830Z,20.74
2019-03-29T04:54:02.821Z,20.71
2019-03-29T04:55:02.815Z,20.78
2019-03-29T04:56:02.804Z,20.77
2019-03-29T04:57:02.814Z,20.74
2019-03-29T04:58:02.783Z,20.71
2019-03-29T04:59:02.769Z,20.67
2019-03-29T05:00:02.761Z,20.78
2019-03-29T05:01:02.749Z,20.71
2019-03-29T05:02:02.758Z,20.64
2019-03-29T05:03:02.731Z,20.63
2019-03-29T05:04:02.715Z,20.71
2019-03-29T05:05:02.703Z,20.64
2019-03-29T05:06:02.690Z,20.58
2019-03-29T05:07:02.700Z,20.55
2019-03-29T05:08:02.676Z,20.58
2019-03-29T05:09:02.662Z,20.59
2019-03-29T05:10:02.653Z,20.53
2019-03-29T05:11:02.642Z,20.53
2019-03-29T05:12:02.645Z,20.50
2019-03-29T05:13:02.620Z,20.44
2019-03-29T05:14:02.609Z,20.44
2019-03-29T05:15:02.603Z,20.40
2019-03-29T05:16:02.593Z,20.34
2019-03-29T05:17:02.599Z,20.36
2019-03-29T05:18:02.565Z,20.33
2019-03-29T05:19:02.556Z,20.33
2019-03-29T05:20:02.543Z,20.33
2019-03-29T05:21:02.539Z,20.24
2019-03-29T05:22:02.538Z,20.27
2019-03-29T05:23:02.511Z,20.29
2019-03-29T05:24:02.513Z,20.26
2019-03-29T05:25:02.496Z,20.26
2019-03-29T05:26:02.481Z,20.30
2019-03-29T05:27:02.525Z,20.26
2019-03-29T05:28:02.461Z,20.26
2019-03-29T05:29:02.451Z,20.27
2019-03-29T05:30:02.442Z,20.26
2019-03-29T05:31:02.429Z,20.22
2019-03-29T05:32:02.413Z,20.22
2019-03-29T05:33:02.448Z,20.27
2019-03-29T05:34:02.408Z,20.29
2019-03-29T05:35:02.392Z,20.29
2019-03-29T05:36:02.381Z,20.22
2019-03-29T05:37:02.375Z,20.29
2019-03-29T05:38:02.374Z,20.17
2019-03-29T05:39:02.348Z,20.14
2019-03-29T05:40:02.342Z,20.18
2019-03-29T05:41:02.323Z,20.17
2019-03-29T05:42:02.318Z,20.19
2019-03-29T05:43:02.323Z,20.12
2019-03-29T05:44:02.294Z,20.21
2019-03-29T05:45:02.280Z,20.08
2019-03-29T05:46:02.278Z,20.10
2019-03-29T05:47:02.261Z,20.11
2019-03-29T05:48:02.268Z,20.10
2019-03-29T05:49:02.238Z,20.03
2019-03-29T05:50:02.232Z,20.03
2019-03-29T05:51:02.217Z,20.04
2019-03-29T05:52:02.213Z,20.07
2019-03-29T05:53:02.213Z,20.04
2019-03-29T05:54:02.193Z,20.03
2019-03-29T05:55:02.194Z,20.07
2019-03-29T05:56:02.163Z,20.10
2019-03-29T05:57:02.155Z,20.10
2019-03-29T05:58:02.166Z,20.08
2019-03-29T05:59:02.133Z,20.10
2019-03-29T06:00:02.127Z,20.07
2019-03-29T06:01:02.116Z,20.07
2019-03-29T06:02:02.104Z,20.08
2019-03-29T06:03:02.105Z,20.07
2019-03-29T06:04:02.095Z,20.10
2019-03-29T06:05:02.222Z,20.08
2019-03-29T06:06:02.067Z,20.08
2019-03-29T06:07:02.050Z,20.00
2019-03-29T06:08:02.054Z,19.96
2019-03-29T06:09:02.033Z,19.99
2019-03-29T06:10:02.016Z,19.97
2019-03-29T06:11:02.014Z,19.84
2019-03-29T06:12:01.997Z,19.97
2019-03-29T06:13:02.018Z,19.94
2019-03-29T06:14:01.978Z,19.92
2019-03-29T06:15:01.979Z,19.94
2019-03-29T06:16:01.960Z,19.85
2019-03-29T06:17:01.943Z,19.79
2019-03-29T06:18:01.934Z,19.90
2019-03-29T06:19:01.935Z,19.87
2019-03-29T06:20:01.912Z,19.89
2019-03-29T06:21:01.900Z,19.79
2019-03-29T06:22:01.888Z,19.79
2019-03-29T06:23:01.885Z,19.82
2019-03-29T06:24:01.886Z,19.82
2019-03-29T06:25:01.866Z,19.87
2019-03-29T06:26:01.851Z,19.89
2019-03-29T06:27:01.844Z,19.92
2019-03-29T06:28:01.825Z,19.90
2019-03-29T06:29:01.837Z,19.81
2019-03-29T06:30:01.849Z,19.92
2019-03-29T06:31:01.799Z,19.81
2019-03-29T06:32:01.788Z,19.79
2019-03-29T06:33:01.777Z,19.89
2019-03-29T06:34:01.782Z,19.79
2019-03-29T06:35:01.754Z,19.87
2019-03-29T06:36:01.744Z,19.79
2019-03-29T06:37:01.732Z,19.85
2019-03-29T06:38:01.728Z,19.79
2019-03-29T06:39:01.728Z,19.87
2019-03-29T06:40:01.704Z,19.79
2019-03-29T06:41:03.191Z,19.90
2019-03-29T06:42:01.686Z,19.90
2019-03-29T06:43:01.668Z,19.94
2019-03-29T06:44:01.671Z,19.93
2019-03-29T06:45:01.647Z,19.99
2019-03-29T06:46:01.643Z,20.00
2019-03-29T06:47:01.633Z,20.03
2019-03-29T06:48:01.621Z,20.08
2019-03-29T06:49:01.621Z,20.15
2019-03-29T06:50:01.593Z,20.15
2019-03-29T06:51:01.589Z,20.24
2019-03-29T06:52:01.590Z,20.27
2019-03-29T06:53:01.564Z,20.32
2019-03-29T06:54:01.570Z,20.42
2019-03-29T06:55:01.540Z,20.50
2019-03-29T06:56:01.531Z,20.56
2019-03-29T06:57:01.520Z,20.56
2019-03-29T06:58:01.514Z,20.56
2019-03-29T06:59:01.522Z,20.58
2019-03-29T07:00:01.492Z,20.56
2019-03-29T07:01:01.482Z,20.68
2019-03-29T07:02:01.477Z,20.59
2019-03-29T07:03:01.461Z,20.68
2019-03-29T07:04:01.462Z,20.68
2019-03-29T07:05:01.441Z,20.68
2019-03-29T07:06:01.425Z,20.74
2019-03-29T07:07:01.415Z,20.71
2019-03-29T07:08:01.404Z,20.75
2019-03-29T07:09:01.416Z,20.82
2019-03-29T07:10:01.385Z,20.77
2019-03-29T07:11:01.383Z,20.70
2019-03-29T07:12:01.400Z,20.77
2019-03-29T07:13:01.351Z,20.68
2019-03-29T07:14:01.375Z,20.70
2019-03-29T07:15:01.331Z,20.70
2019-03-29T07:16:01.322Z,20.71
2019-03-29T07:17:01.309Z,20.58
2019-03-29T07:18:01.301Z,20.64
2019-03-29T07:19:04.764Z,20.63
2019-03-29T07:20:01.308Z,20.52
2019-03-29T07:21:01.269Z,20.55
2019-03-29T07:22:01.256Z,20.60
2019-03-29T07:23:01.250Z,20.59
2019-03-29T07:24:01.248Z,20.56
2019-03-29T07:25:01.252Z,20.58
2019-03-29T07:26:01.219Z,20.58
2019-03-29T07:27:01.212Z,20.48
2019-03-29T07:28:01.193Z,20.50
2019-03-29T07:29:01.195Z,20.48
2019-03-29T07:30:01.195Z,20.53
2019-03-29T07:31:01.163Z,20.49
2019-03-29T07:32:01.163Z,20.49
2019-03-29T07:33:01.138Z,20.52
2019-03-29T07:34:01.140Z,20.52
2019-03-29T07:35:01.131Z,20.49
2019-03-29T07:36:01.117Z,20.48
2019-03-29T07:37:01.135Z,20.44
2019-03-29T07:38:01.119Z,20.46
2019-03-29T07:39:01.077Z,20.46
2019-03-29T07:40:01.086Z,20.42
2019-03-29T07:41:01.055Z,20.39
2019-03-29T07:42:01.045Z,20.48
2019-03-29T07:43:01.036Z,20.36
2019-03-29T07:44:01.033Z,20.46
2019-03-29T07:45:01.034Z,20.39
2019-03-29T07:46:00.999Z,20.34
2019-03-29T07:47:00.995Z,20.36
2019-03-29T07:48:00.981Z,20.39
2019-03-29T07:49:00.976Z,20.33
2019-03-29T07:50:00.979Z,20.29
2019-03-29T07:51:00.954Z,20.22
2019-03-29T07:52:00.934Z,20.27
2019-03-29T07:53:00.931Z,20.27
2019-03-29T07:54:00.918Z,20.29
2019-03-29T07:55:00.925Z,20.22
2019-03-29T07:56:00.901Z,20.26
2019-03-29T07:57:00.891Z,20.27
2019-03-29T07:58:00.883Z,20.27
2019-03-29T07:59:00.867Z,20.24
2019-03-29T08:00:00.858Z,20.24
2019-03-29T08:01:00.860Z,20.34
2019-03-29T08:02:02.313Z,20.19
2019-03-29T08:03:00.826Z,20.22
2019-03-29T08:04:00.809Z,20.26
2019-03-29T08:05:00.798Z,20.24
2019-03-29T08:06:00.805Z,20.22
2019-03-29T08:07:00.789Z,20.12
2019-03-29T08:08:00.768Z,20.17
2019-03-29T08:09:01.052Z,20.17
2019-03-29T08:10:03.703Z,20.14
2019-03-29T08:11:00.755Z,20.14
2019-03-29T08:12:00.729Z,20.18
2019-03-29T08:13:00.729Z,20.15
2019-03-29T08:14:00.713Z,20.15
2019-03-29T08:15:00.694Z,20.19
2019-03-29T08:16:00.700Z,20.17
2019-03-29T08:17:00.675Z,20.15
2019-03-29T08:18:01.704Z,20.17
2019-03-29T08:19:00.660Z,20.08
2019-03-29T08:20:35.704Z,20.15
2019-03-29T08:21:01.647Z,20.14
2019-03-29T08:22:00.625Z,20.14
2019-03-29T08:23:00.612Z,20.11
2019-03-29T08:24:00.603Z,20.14
2019-03-29T08:25:00.593Z,20.21
2019-03-29T08:26:00.598Z,20.15
2019-03-29T08:27:00.574Z,20.10
2019-03-29T08:28:00.557Z,20.15
2019-03-29T08:29:00.555Z,20.07
2019-03-29T08:30:00.540Z,20.04
2019-03-29T08:31:00.541Z,20.04
2019-03-29T08:32:00.520Z,20.04
2019-03-29T08:33:00.505Z,20.07
2019-03-29T08:34:00.499Z,20.08
2019-03-29T08:35:00.492Z,20.10
2019-03-29T08:36:00.483Z,20.00
2019-03-29T08:37:00.479Z,20.07
2019-03-29T08:38:00.454Z,20.08
2019-03-29T08:39:00.446Z,20.04
2019-03-29T08:40:00.449Z,20.04
2019-03-29T08:41:00.439Z,19.99
2019-03-29T08:42:00.890Z,20.02
2019-03-29T08:43:00.402Z,20.02
2019-03-29T08:44:00.402Z,20.15
2019-03-29T08:45:00.429Z,19.99
2019-03-29T08:46:00.385Z,20.03
2019-03-29T08:47:00.355Z,20.08
2019-03-29T08:48:02.192Z,20.03
2019-03-29T08:49:00.337Z,20.07
2019-03-29T08:50:00.435Z,20.02
2019-03-29T08:51:00.332Z,20.08
2019-03-29T08:52:00.307Z,20.08
2019-03-29T08:53:00.293Z,20.04
2019-03-29T08:54:00.284Z,20.07
2019-03-29T08:55:00.425Z,20.03
2019-03-29T08:56:00.283Z,20.03
2019-03-29T08:57:00.248Z,20.02
2019-03-29T08:58:00.248Z,20.07
2019-03-29T08:59:00.232Z,20.14
2019-03-29T09:00:00.405Z,20.22
2019-03-29T09:01:00.224Z,20.21
2019-03-29T09:02:00.201Z,20.12
2019-03-29T09:03:00.203Z,20.17
2019-03-29T09:04:05.016Z,20.18
2019-03-29T09:05:01.175Z,20.18
2019-03-29T09:06:00.191Z,20.27
2019-03-29T09:07:00.158Z,20.29
2019-03-29T09:08:00.137Z,20.29
2019-03-29T09:09:00.127Z,20.22
2019-03-29T09:10:00.389Z,20.21
2019-03-29T09:11:00.118Z,20.34
2019-03-29T09:12:13.451Z,20.36
2019-03-29T09:13:04.198Z,20.36
2019-03-29T09:14:00.086Z,20.44
2019-03-29T09:15:03.358Z,20.49
2019-03-29T09:16:00.082Z,20.44
2019-03-29T09:17:00.041Z,20.46
2019-03-29T09:18:00.317Z,20.49
2019-03-29T09:19:00.020Z,20.53
2019-03-29T09:20:00.008Z,20.50
2019-03-29T09:20:59.997Z,20.49
2019-03-29T09:22:00.002Z,20.55
2019-03-29T09:22:59.978Z,20.52
2019-03-29T09:23:59.969Z,20.55
2019-03-29T09:24:59.959Z,20.56
2019-03-29T09:25:59.957Z,20.55
2019-03-29T09:26:59.953Z,20.58
2019-03-29T09:27:59.929Z,20.55
2019-03-29T09:28:59.931Z,20.55
2019-03-29T09:29:59.907Z,20.55
2019-03-29T09:30:59.906Z,20.58
2019-03-29T09:31:59.899Z,20.55
2019-03-29T09:32:59.874Z,20.55
2019-03-29T09:33:59.858Z,20.56
2019-03-29T09:34:59.851Z,20.58
2019-03-29T09:35:59.847Z,20.53
2019-03-29T09:37:00.230Z,20.63
2019-03-29T09:37:59.815Z,20.58
2019-03-29T09:38:59.812Z,20.56
2019-03-29T09:39:59.794Z,20.59
2019-03-29T09:40:59.806Z,20.59
2019-03-29T09:41:59.795Z,20.63
2019-03-29T09:43:07.147Z,20.58
2019-03-29T09:44:00.755Z,20.64
2019-03-29T09:44:59.746Z,20.56
2019-03-29T09:46:03.141Z,20.56
2019-03-29T09:46:59.735Z,20.60
2019-03-29T09:47:59.713Z,20.58
2019-03-29T09:48:59.707Z,20.56
2019-03-29T09:49:59.690Z,20.56
2019-03-29T09:50:59.682Z,20.58
2019-03-29T09:51:59.720Z,20.59
2019-03-29T09:53:01.385Z,20.60
2019-03-29T09:53:59.656Z,20.64
2019-03-29T09:54:59.643Z,20.64
2019-03-29T09:55:59.634Z,20.60
2019-03-29T09:56:59.636Z,20.60
2019-03-29T09:57:59.607Z,20.59
2019-03-29T09:58:59.602Z,20.58
2019-03-29T09:59:59.586Z,20.58
2019-03-29T10:00:59.574Z,20.63
2019-03-29T10:01:59.583Z,20.59
2019-03-29T10:02:59.553Z,20.53
2019-03-29T10:03:59.549Z,20.56
2019-03-29T10:04:59.532Z,20.58
2019-03-29T10:05:59.606Z,20.56
2019-03-29T10:06:59.527Z,20.64
2019-03-29T10:07:59.499Z,20.63
2019-03-29T10:08:59.492Z,20.66
2019-03-29T10:09:59.479Z,20.70
2019-03-29T10:10:59.479Z,20.68
2019-03-29T10:11:59.461Z,20.64
2019-03-29T10:12:59.468Z,20.75
2019-03-29T10:13:59.442Z,20.70
2019-03-29T10:14:59.423Z,20.64
2019-03-29T10:15:59.440Z,20.74
2019-03-29T10:16:59.409Z,20.70
2019-03-29T10:17:59.411Z,20.71
2019-03-29T10:18:59.391Z,20.71
2019-03-29T10:19:59.373Z,20.71
2019-03-29T10:20:59.361Z,20.74
2019-03-29T10:21:59.355Z,20.70
2019-03-29T10:22:59.371Z,20.68
2019-03-29T10:23:59.335Z,20.71
2019-03-29T10:25:01.975Z,20.78
2019-03-29T10:25:59.309Z,20.75
2019-03-29T10:26:59.319Z,20.83
2019-03-29T10:27:59.309Z,20.78
2019-03-29T10:28:59.283Z,20.77
2019-03-29T10:29:59.271Z,20.85
2019-03-29T10:30:59.263Z,20.68
2019-03-29T10:31:59.246Z,20.75
2019-03-29T10:32:59.248Z,20.73
2019-03-29T10:33:59.227Z,20.75
2019-03-29T10:34:59.219Z,20.80
2019-03-29T10:35:59.203Z,20.80
2019-03-29T10:36:59.189Z,20.78
2019-03-29T10:37:59.203Z,20.80
2019-03-29T10:38:59.178Z,20.80
2019-03-29T10:39:59.163Z,20.89
2019-03-29T10:40:59.153Z,20.78
2019-03-29T10:41:59.143Z,20.80
2019-03-29T10:42:59.146Z,20.85
2019-03-29T10:43:59.127Z,20.86
2019-03-29T10:44:59.116Z,20.83
2019-03-29T10:45:59.098Z,20.88
2019-03-29T10:46:59.095Z,20.75
2019-03-29T10:47:59.097Z,20.78
2019-03-29T10:48:59.067Z,20.85
2019-03-29T10:49:59.054Z,20.86
2019-03-29T10:50:59.044Z,20.86
2019-03-29T10:51:59.038Z,20.85
2019-03-29T10:52:59.038Z,20.80
2019-03-29T10:53:59.011Z,20.73
2019-03-29T10:54:59.003Z,20.82
2019-03-29T10:55:58.990Z,20.88
2019-03-29T10:56:58.996Z,20.86
2019-03-29T10:57:59.072Z,20.88
2019-03-29T10:58:58.976Z,20.88
2019-03-29T10:59:58.956Z,20.88
2019-03-29T11:00:58.939Z,20.77
2019-03-29T11:01:58.942Z,20.83
2019-03-29T11:02:58.918Z,20.89
2019-03-29T11:03:58.924Z,20.78
2019-03-29T11:04:58.905Z,20.86
2019-03-29T11:05:58.886Z,20.85
2019-03-29T11:06:58.872Z,20.89
2019-03-29T11:07:58.865Z,20.89
2019-03-29T11:08:58.868Z,20.88
2019-03-29T11:09:58.848Z,20.89
2019-03-29T11:10:58.835Z,20.83
2019-03-29T11:11:58.823Z,20.85
2019-03-29T11:13:11.950Z,20.86
2019-03-29T11:13:59.819Z,20.85
2019-03-29T11:14:58.791Z,20.83
2019-03-29T11:15:58.784Z,20.86
2019-03-29T11:16:58.777Z,20.75
2019-03-29T11:17:58.759Z,20.85
2019-03-29T11:18:58.758Z,20.83
2019-03-29T11:19:58.737Z,20.85
2019-03-29T11:20:58.734Z,20.85
2019-03-29T11:21:58.720Z,20.86
2019-03-29T11:22:58.706Z,20.85
2019-03-29T11:23:58.713Z,20.86
2019-03-29T11:24:58.685Z,20.89
2019-03-29T11:25:58.669Z,20.88
2019-03-29T11:26:58.662Z,20.85
2019-03-29T11:27:58.659Z,20.89
2019-03-29T11:28:58.651Z,20.83
2019-03-29T11:29:58.630Z,20.77
2019-03-29T11:30:58.622Z,20.92
2019-03-29T11:31:58.611Z,20.86
2019-03-29T11:32:58.601Z,20.83
2019-03-29T11:33:58.630Z,20.85
2019-03-29T11:34:58.584Z,20.89
2019-03-29T11:35:58.574Z,20.80
2019-03-29T11:36:58.561Z,20.85
2019-03-29T11:37:58.567Z,20.82
2019-03-29T11:38:58.556Z,20.85
2019-03-29T11:39:58.534Z,20.86
2019-03-29T11:40:58.514Z,20.86
2019-03-29T11:41:58.535Z,20.82
2019-03-29T11:42:58.495Z,20.93
2019-03-29T11:43:58.507Z,20.86
2019-03-29T11:44:58.489Z,20.74
2019-03-29T11:45:58.464Z,20.88
2019-03-29T11:46:58.460Z,20.83
2019-03-29T11:48:08.195Z,20.89
2019-03-29T11:48:59.442Z,20.95
2019-03-29T11:49:58.421Z,20.82
2019-03-29T11:50:58.420Z,20.88
2019-03-29T11:51:58.405Z,20.83
2019-03-29T11:52:58.386Z,20.89
2019-03-29T11:53:58.401Z,20.85
2019-03-29T11:54:58.366Z,20.85
2019-03-29T11:55:58.368Z,20.86
2019-03-29T11:56:58.340Z,20.90
2019-03-29T11:57:58.336Z,20.89
2019-03-29T11:58:58.341Z,20.96
2019-03-29T11:59:58.312Z,20.89
2019-03-29T12:00:58.303Z,20.89
2019-03-29T12:01:58.300Z,20.92
2019-03-29T12:02:58.284Z,20.89
2019-03-29T12:03:58.290Z,21.03
2019-03-29T12:04:58.262Z,21.05
2019-03-29T12:05:58.249Z,21.00
2019-03-29T12:06:58.244Z,20.98
2019-03-29T12:07:58.234Z,21.03
2019-03-29T12:08:58.251Z,21.00
2019-03-29T12:09:58.216Z,21.00
2019-03-29T12:10:58.199Z,21.05
2019-03-29T12:11:58.200Z,21.04
2019-03-29T12:12:58.174Z,20.95
2019-03-29T12:13:58.168Z,20.98
2019-03-29T12:14:58.175Z,20.96
2019-03-29T12:15:58.143Z,21.03
2019-03-29T12:16:58.141Z,20.96
2019-03-29T12:17:58.121Z,20.93
2019-03-29T12:18:58.115Z,20.93
2019-03-29T12:19:58.116Z,21.03
2019-03-29T12:20:58.263Z,21.04
2019-03-29T12:21:58.082Z,21.00
2019-03-29T12:22:58.071Z,21.07
2019-03-29T12:23:58.144Z,21.01
2019-03-29T12:24:58.068Z,20.96
2019-03-29T12:25:58.126Z,20.98
2019-03-29T12:26:58.053Z,20.95
2019-03-29T12:27:58.204Z,21.00
2019-03-29T12:28:58.015Z,21.01
2019-03-29T12:29:58.012Z,21.05
2019-03-29T12:30:58.181Z,21.03
2019-03-29T12:31:58.215Z,21.07
2019-03-29T12:32:58.019Z,21.05
2019-03-29T12:33:57.971Z,21.08
2019-03-29T12:34:57.969Z,21.05
2019-03-29T12:35:57.934Z,21.08
2019-03-29T12:36:57.919Z,21.05
2019-03-29T12:37:57.920Z,21.13
2019-03-29T12:38:57.994Z,21.10
2019-03-29T12:39:57.901Z,21.04
2019-03-29T12:40:57.879Z,21.14
2019-03-29T12:41:57.873Z,21.08
2019-03-29T12:42:57.863Z,21.13
2019-03-29T12:43:57.844Z,21.11
2019-03-29T12:44:57.850Z,21.05
2019-03-29T12:45:57.830Z,21.19
2019-03-29T12:46:57.818Z,21.13
2019-03-29T12:47:57.798Z,21.11
2019-03-29T12:48:57.803Z,21.14
2019-03-29T12:49:57.800Z,21.08
2019-03-29T12:50:57.771Z,21.15
2019-03-29T12:51:57.769Z,21.19